Time;durP1;ratioP1;P1;durP2;ratioP2;P2;SDS_P1;SDS_P2;PMS_P1;PMS_P2;Temp;Humidity;BMP_temperature;BMP_pressure;BME280_temperature;BME280_humidity;BME280_pressure;Samples;Min_cycle;Max_cycle;Signal;HPM_P1;HPM_P2
2022/04/18 00:00:46;;;;;;;6.00;4.88;;;;;;;6.00;67.30;100569.88;5020444;28;20169;-75
2022/04/18 00:03:11;;;;;;;6.13;4.18;;;;;;;5.74;67.85;100569.28;5042574;28;20024;-74
2022/04/18 00:05:37;;;;;;;6.18;4.57;;;;;;;6.20;66.44;100556.38;5021378;28;20041;-75
2022/04/18 00:08:03;;;;;;;9.18;4.78;;;;;;;5.86;67.58;100538.28;5009550;28;20067;-74
2022/04/18 00:10:29;;;;;;;6.32;4.28;;;;;;;6.33;67.04;100559.25;5039337;28;20040;-76
2022/04/18 00:12:55;;;;;;;5.88;4.40;;;;;;;6.01;66.77;100545.56;5040274;28;20044;-75
2022/04/18 00:15:21;;;;;;;6.90;5.82;;;;;;;5.99;68.21;100556.81;5022885;28;20037;-74
2022/04/18 00:17:46;;;;;;;8.85;5.30;;;;;;;5.74;67.78;100459.94;5027962;28;20061;-73
2022/04/18 00:20:12;;;;;;;11.45;6.47;;;;;;;6.51;68.45;100569.16;5040180;28;20056;-75
2022/04/18 00:22:37;;;;;;;8.10;5.45;;;;;;;6.15;69.60;100561.47;5042938;28;20076;-73
2022/04/18 00:25:05;;;;;;;7.57;5.75;;;;;;;6.06;69.73;100510.09;5043831;28;20060;-75
2022/04/18 00:27:30;;;;;;;7.80;5.93;;;;;;;6.00;69.93;100524.72;5007634;28;20429;-75
2022/04/18 00:29:56;;;;;;;7.05;5.78;;;;;;;6.30;69.90;100534.88;5040402;28;20041;-73
2022/04/18 00:32:21;;;;;;;11.80;5.88;;;;;;;6.45;69.49;100556.00;5046559;28;20556;-76
2022/04/18 00:34:53;;;;;;;7.55;5.28;;;;;;;6.15;69.50;100551.06;5041067;28;20049;-76
2022/04/18 00:37:18;;;;;;;6.13;4.60;;;;;;;6.13;67.05;100537.13;5043611;28;20044;-74
2022/04/18 00:39:45;;;;;;;7.95;4.57;;;;;;;6.21;66.46;100513.84;5043477;28;22512;-78
2022/04/18 00:42:16;;;;;;;7.38;5.32;;;;;;;6.45;66.65;100537.75;5045985;28;20683;-76
2022/04/18 00:44:42;;;;;;;7.80;5.07;;;;;;;5.84;66.15;100526.09;5024604;28;20056;-74
2022/04/18 00:47:08;;;;;;;5.43;3.80;;;;;;;5.85;66.58;100527.84;5043290;28;20045;-74
2022/04/18 00:49:34;;;;;;;5.07;4.03;;;;;;;6.00;66.10;100541.22;5042638;28;20071;-75
2022/04/18 00:52:01;;;;;;;5.35;3.63;;;;;;;5.95;60.63;100500.28;5023742;28;20025;-74
2022/04/18 00:54:27;;;;;;;5.65;3.97;;;;;;;6.60;62.36;100544.97;5041501;28;20040;-74
2022/04/18 00:56:54;;;;;;;7.00;4.80;;;;;;;6.47;65.38;100519.53;4999306;28;20740;-76
2022/04/18 00:59:21;;;;;;;6.35;4.35;;;;;;;6.15;66.22;100477.25;5042557;28;20056;-74
2022/04/18 01:01:46;;;;;;;7.78;4.47;;;;;;;6.49;66.18;100512.63;5006488;28;20098;-74
2022/04/18 01:04:12;;;;;;;6.68;4.82;;;;;;;6.31;67.76;100524.47;5042723;28;20310;-74
2022/04/18 01:06:37;;;;;;;5.38;4.15;;;;;;;6.48;67.52;100522.16;5023915;28;20037;-73
2022/04/18 01:09:03;;;;;;;9.07;5.47;;;;;;;6.20;68.33;100462.56;5015150;28;20131;-80
2022/04/18 01:11:29;;;;;;;8.05;4.78;;;;;;;6.47;68.79;100503.91;5044747;28;20106;-74
2022/04/18 01:13:55;;;;;;;6.93;5.35;;;;;;;6.40;65.85;100473.38;5026443;28;20171;-75
2022/04/18 01:16:20;;;;;;;7.50;5.13;;;;;;;6.16;66.98;100459.03;5046321;28;20156;-73
2022/04/18 01:18:46;;;;;;;7.90;4.93;;;;;;;6.48;66.97;100493.47;5023473;28;20033;-74
2022/04/18 01:21:17;;;;;;;6.93;4.80;;;;;;;6.06;67.86;100450.19;5043560;28;20322;-74
2022/04/18 01:23:43;;;;;;;6.80;5.60;;;;;;;6.18;67.12;100433.91;5027133;28;20044;-74
2022/04/18 01:28:58;;;;;;;6.65;4.30;;;;;;;6.09;63.66;100451.97;5044790;28;20123;-74
2022/04/18 01:31:42;;;;;;;7.90;2.85;;;;;;;5.71;62.46;100359.22;5045366;28;20139;-76
2022/04/18 01:34:08;;;;;;;6.45;3.65;;;;;;;6.44;60.35;100496.91;5045521;28;20049;-74
2022/04/18 01:36:34;;;;;;;6.47;3.35;;;;;;;6.43;61.47;100489.06;5046767;28;20040;-77
2022/04/18 01:38:59;;;;;;;5.35;3.65;;;;;;;6.13;62.66;100492.84;5047800;28;20041;-76
2022/04/18 01:41:26;;;;;;;4.20;2.67;;;;;;;6.06;60.85;100464.91;5046070;28;20049;-74
2022/04/18 01:43:53;;;;;;;4.18;2.40;;;;;;;6.10;59.68;100448.50;5047625;28;20049;-73
2022/04/18 01:46:20;;;;;;;6.75;3.17;;;;;;;6.22;60.05;100481.72;5047740;28;20072;-74
2022/04/18 01:48:47;;;;;;;4.75;2.97;;;;;;;6.13;60.77;100456.38;5045099;28;20029;-78
2022/04/18 01:51:13;;;;;;;4.25;2.70;;;;;;;6.06;60.54;100473.63;5046372;28;20033;-72
2022/04/18 01:53:39;;;;;;;5.05;2.53;;;;;;;6.09;58.96;100418.09;5046162;28;20658;-74
2022/04/18 01:56:05;;;;;;;4.53;2.95;;;;;;;6.36;59.33;100477.63;5045140;28;20131;-73
2022/04/18 01:58:31;;;;;;;3.70;1.83;;;;;;;6.23;57.76;100470.47;5046771;28;20071;-76
2022/04/18 02:00:56;;;;;;;4.63;2.55;;;;;;;6.28;59.67;100474.03;5045465;28;20472;-74
2022/04/18 02:03:22;;;;;;;5.55;2.88;;;;;;;5.96;60.06;100439.56;5044931;28;20025;-77
2022/04/18 02:05:49;;;;;;;5.63;2.92;;;;;;;5.75;62.08;100437.38;5044950;28;20051;-76
2022/04/18 02:08:14;;;;;;;4.72;2.80;;;;;;;6.23;61.42;100454.84;5027237;28;20056;-76
2022/04/18 02:10:40;;;;;;;5.32;2.97;;;;;;;6.35;61.63;100473.28;5029431;28;20057;-72
2022/04/18 02:13:07;;;;;;;4.47;2.90;;;;;;;5.88;62.51;100427.22;5037094;28;20048;-73
2022/04/18 02:15:34;;;;;;;7.18;3.60;;;;;;;6.24;62.76;100493.06;5047136;28;20040;-73
2022/04/18 02:17:59;;;;;;;7.40;4.45;;;;;;;5.96;63.69;100474.28;5043705;28;20113;-74
2022/04/18 02:20:25;;;;;;;5.72;3.53;;;;;;;5.95;64.26;100472.53;5042001;28;20144;-74
2022/04/18 02:22:50;;;;;;;6.63;4.00;;;;;;;5.95;64.21;100466.44;5044711;28;20053;-73
2022/04/18 02:25:16;;;;;;;5.60;3.50;;;;;;;5.87;64.06;100471.47;5047091;28;20084;-73
2022/04/18 02:27:41;;;;;;;3.95;3.22;;;;;;;5.61;65.26;100452.72;5047084;28;20504;-74
2022/04/18 02:30:09;;;;;;;5.20;3.53;;;;;;;6.23;63.57;100471.34;5025317;28;20065;-75
2022/04/18 02:32:47;;;;;;;5.72;3.95;;;;;;;6.11;64.09;100406.88;5020685;28;20038;-73
2022/04/18 02:35:19;;;;;;;7.05;3.85;;;;;;;6.08;64.51;100461.50;4992448;28;20038;-74
2022/04/18 02:37:45;;;;;;;3.70;2.63;;;;;;;6.33;64.60;100454.13;5016637;28;20041;-77
2022/04/18 02:40:11;;;;;;;5.65;3.33;;;;;;;6.52;63.83;100458.81;5018110;28;20056;-76
2022/04/18 02:42:36;;;;;;;7.88;5.18;;;;;;;6.16;68.11;100445.13;5014971;28;20038;-75
2022/04/18 02:45:02;;;;;;;7.28;5.70;;;;;;;6.21;69.33;100444.38;5021266;28;20054;-73
2022/04/18 02:47:31;;;;;;;10.07;6.95;;;;;;;6.01;72.20;100409.25;5014346;28;20053;-74
2022/04/18 02:49:59;;;;;;;9.15;7.10;;;;;;;5.68;74.18;100412.94;5024707;28;20441;-77
2022/04/18 02:52:25;;;;;;;9.95;7.45;;;;;;;6.09;75.28;100446.75;5020098;28;20050;-77
2022/04/18 02:54:51;;;;;;;7.22;6.47;;;;;;;6.21;74.89;100440.91;5017803;28;20117;-77
2022/04/18 02:57:16;;;;;;;7.72;5.97;;;;;;;6.20;75.11;100440.00;4999890;28;20153;-75
2022/04/18 02:59:43;;;;;;;7.72;6.68;;;;;;;5.95;75.58;100456.91;4998826;28;20109;-76
2022/04/18 03:02:09;;;;;;;11.48;8.20;;;;;;;5.99;76.38;100452.63;5004100;28;20044;-73
2022/04/18 03:04:35;;;;;;;8.63;7.43;;;;;;;5.78;77.19;100453.03;5018233;28;20045;-73
2022/04/18 03:07:01;;;;;;;9.27;7.15;;;;;;;5.68;77.20;100449.38;5015171;28;20541;-75
2022/04/18 03:09:27;;;;;;;11.40;8.50;;;;;;;6.03;77.58;100455.31;5020879;28;20030;-74
2022/04/18 03:11:53;;;;;;;8.40;6.55;;;;;;;5.56;77.16;100384.06;5020559;28;20515;-72
2022/04/18 03:14:19;;;;;;;11.63;8.35;;;;;;;5.86;77.50;100459.31;5017123;28;20042;-74
2022/04/18 03:16:47;;;;;;;9.88;6.90;;;;;;;5.96;77.33;100453.44;5004660;28;20552;-78
2022/04/18 03:19:12;;;;;;;11.40;8.23;;;;;;;5.41;76.44;100384.66;5008304;28;20052;-74
2022/04/18 03:21:39;;;;;;;9.45;7.72;;;;;;;5.31;77.93;100411.31;5002475;28;20038;-74
2022/04/18 03:24:05;;;;;;;8.57;7.40;;;;;;;5.87;77.86;100454.09;5017621;28;20549;-73
2022/04/18 03:26:30;;;;;;;9.18;7.60;;;;;;;5.68;78.43;100420.75;5016371;28;20044;-74
2022/04/18 03:28:56;;;;;;;8.90;7.53;;;;;;;5.95;78.65;100456.00;5027854;28;20056;-78
2022/04/18 03:31:23;;;;;;;9.43;7.80;;;;;;;5.90;78.64;100442.91;5045991;28;20105;-78
2022/04/18 03:33:48;;;;;;;9.32;7.25;;;;;;;5.37;78.39;100406.25;5044399;28;20570;-76
2022/04/18 03:41:42;;;;;;;14.57;7.95;;;;;;;6.04;79.43;100466.59;5031208;28;20075;-75
2022/04/18 03:44:09;;;;;;;9.00;7.43;;;;;;;5.66;79.20;100414.63;5046617;28;20116;-73
2022/04/18 03:46:34;;;;;;;13.05;8.73;;;;;;;5.64;79.12;100477.09;5026476;28;20365;-77
2022/04/18 03:49:00;;;;;;;11.65;8.90;;;;;;;5.32;79.98;100415.69;5046156;28;20036;-76
2022/04/18 03:51:25;;;;;;;10.55;8.75;;;;;;;5.84;79.61;100451.44;5046867;28;20021;-73
2022/04/18 03:53:51;;;;;;;9.88;8.10;;;;;;;6.07;79.49;100480.59;5046607;28;20041;-73
2022/04/18 03:56:18;;;;;;;10.30;8.82;;;;;;;5.85;78.56;100491.38;5044013;28;20045;-72
2022/04/18 03:58:43;;;;;;;12.25;9.80;;;;;;;5.54;78.73;100435.22;5045750;28;20130;-74
2022/04/18 04:01:08;;;;;;;12.18;9.73;;;;;;;6.05;78.41;100484.88;5046348;28;20041;-74
2022/04/18 04:03:35;;;;;;;11.82;9.00;;;;;;;5.78;78.67;100437.44;5045671;28;20173;-74
2022/04/18 04:06:00;;;;;;;12.80;8.70;;;;;;;5.55;79.81;100470.78;5042137;28;20037;-73
2022/04/18 04:08:28;;;;;;;16.15;9.38;;;;;;;5.76;79.91;100467.75;5019767;28;20099;-76
2022/04/18 04:10:54;;;;;;;11.65;8.90;;;;;;;5.62;79.50;100433.63;5043707;28;20052;-73
2022/04/18 04:13:20;;;;;;;15.48;9.90;;;;;;;5.64;78.77;100448.47;5024151;28;20111;-73
2022/04/18 04:15:47;;;;;;;11.18;9.57;;;;;;;5.95;78.44;100474.25;5026060;28;20036;-73
2022/04/18 04:18:13;;;;;;;12.50;10.18;;;;;;;5.74;78.53;100428.69;5042960;28;20115;-77
2022/04/18 04:20:39;;;;;;;11.50;10.13;;;;;;;5.61;78.28;100419.75;5042132;28;20131;-76
2022/04/18 04:23:04;;;;;;;10.98;9.55;;;;;;;5.71;78.08;100411.28;5041306;28;21933;-75
2022/04/18 04:25:30;;;;;;;13.60;10.40;;;;;;;5.85;78.00;100423.69;5044819;28;20055;-73
2022/04/18 04:27:57;;;;;;;12.32;10.95;;;;;;;6.05;78.64;100457.97;5017504;28;20041;-73
2022/04/18 04:30:22;;;;;;;11.45;10.23;;;;;;;5.67;78.31;100430.28;5031645;28;20056;-74
2022/04/18 04:32:50;;;;;;;15.73;10.52;;;;;;;5.74;78.62;100415.69;5034273;28;20064;-74
2022/04/18 04:35:17;;;;;;;11.93;9.70;;;;;;;6.21;78.00;100453.91;5005681;28;20505;-73
2022/04/18 04:37:44;;;;;;;20.13;9.82;;;;;;;5.99;77.80;100423.97;5044205;28;20072;-74
2022/04/18 04:40:12;;;;;;;12.05;9.10;;;;;;;6.24;77.30;100461.78;5023676;28;20053;-74
2022/04/18 04:42:38;;;;;;;11.82;10.35;;;;;;;6.16;77.32;100463.34;5044328;28;20491;-74
2022/04/18 04:45:05;;;;;;;12.05;10.40;;;;;;;5.77;77.74;100449.56;5029733;28;20416;-73
2022/04/18 04:47:30;;;;;;;16.50;10.38;;;;;;;6.18;77.93;100456.44;5023932;28;20065;-76
2022/04/18 04:49:56;;;;;;;14.60;11.25;;;;;;;5.88;76.71;100414.22;5044415;28;20049;-73
2022/04/18 04:52:22;;;;;;;10.57;9.45;;;;;;;6.08;76.75;100438.03;5049286;28;20049;-74
2022/04/18 04:54:47;;;;;;;11.25;9.85;;;;;;;5.79;77.08;100376.72;5028376;28;20064;-75
2022/04/18 04:57:13;;;;;;;12.45;9.75;;;;;;;6.29;75.50;100460.13;5048575;28;20037;-76
2022/04/18 04:59:45;;;;;;;11.90;9.45;;;;;;;6.00;77.72;100442.25;5028849;28;20110;-79
2022/04/18 05:02:12;;;;;;;10.27;7.70;;;;;;;6.25;76.13;100454.00;5046540;28;20048;-74
2022/04/18 05:04:38;;;;;;;12.68;9.60;;;;;;;5.88;75.54;100405.53;5046979;28;20041;-75
2022/04/18 05:07:03;;;;;;;12.65;9.20;;;;;;;6.30;75.62;100454.09;5046610;28;20052;-73
2022/04/18 05:09:31;;;;;;;10.88;9.40;;;;;;;6.55;74.60;100455.38;5047309;28;20476;-74
2022/04/18 05:11:57;;;;;;;9.90;8.77;;;;;;;6.54;74.06;100461.44;5028022;28;20057;-73
2022/04/18 05:14:23;;;;;;;12.82;9.48;;;;;;;6.13;74.09;100422.50;5029560;28;20093;-74
2022/04/18 05:16:49;;;;;;;10.40;8.07;;;;;;;6.67;72.85;100453.00;5031335;28;20081;-76
2022/04/18 05:19:14;;;;;;;12.43;8.95;;;;;;;6.09;73.23;100421.59;5038942;28;20783;-72
2022/04/18 05:21:41;;;;;;;10.55;7.57;;;;;;;5.83;74.30;100420.16;5047902;28;20484;-73
2022/04/18 05:24:07;;;;;;;8.95;7.05;;;;;;;6.05;71.53;100463.16;5047597;28;20095;-73
2022/04/18 05:26:33;;;;;;;11.70;7.35;;;;;;;6.12;67.49;100462.44;5029901;28;20153;-74
2022/04/18 05:29:00;;;;;;;8.50;6.93;;;;;;;5.96;72.56;100486.44;5031270;28;20200;-75
2022/04/18 05:31:25;;;;;;;9.95;6.72;;;;;;;5.57;69.72;100410.16;5026832;28;20056;-74
2022/04/18 05:33:56;;;;;;;13.68;6.53;;;;;;;6.39;69.53;100456.88;5043106;28;20113;-73
2022/04/18 05:36:22;;;;;;;9.18;6.50;;;;;;;6.24;69.31;100453.97;5040347;28;20052;-73
2022/04/18 05:38:47;;;;;;;9.05;6.38;;;;;;;6.50;67.45;100442.25;4988069;28;20042;-74
2022/04/18 05:41:14;;;;;;;12.07;6.72;;;;;;;6.64;66.51;100447.72;5006778;28;20034;-74
2022/04/18 05:43:39;;;;;;;10.20;6.05;;;;;;;6.57;68.48;100444.97;5006891;28;20054;-73
2022/04/18 05:46:05;;;;;;;12.38;6.75;;;;;;;5.69;68.72;100405.19;4990369;28;20092;-75
2022/04/18 05:48:31;;;;;;;10.93;6.82;;;;;;;5.98;69.02;100449.16;5005253;28;20041;-73
2022/04/18 05:50:57;;;;;;;9.43;6.30;;;;;;;5.98;67.93;100445.69;5003282;28;20057;-80
2022/04/18 05:53:26;;;;;;;11.10;7.57;;;;;;;6.00;70.24;100451.78;5002377;28;20057;-74
2022/04/18 05:55:53;;;;;;;8.63;6.45;;;;;;;6.25;68.78;100440.97;5002612;28;20565;-75
2022/04/18 05:58:19;;;;;;;5.60;3.38;;;;;;;5.81;65.46;100456.59;4984876;28;20045;-74
2022/04/18 06:00:44;;;;;;;5.35;2.97;;;;;;;5.58;63.43;100445.72;5006839;28;20030;-75
2022/04/18 06:03:12;;;;;;;3.03;1.95;;;;;;;5.85;62.61;100452.31;5006385;28;20033;-76
2022/04/18 06:05:37;;;;;;;6.10;2.80;;;;;;;5.70;62.73;100463.31;4989302;28;20101;-76
2022/04/18 06:08:04;;;;;;;3.55;2.38;;;;;;;5.85;62.28;100460.13;5004854;28;20076;-75
2022/04/18 06:10:33;;;;;;;3.88;2.33;;;;;;;5.65;61.56;100457.13;4993869;28;20051;-75
2022/04/18 06:13:01;;;;;;;4.43;2.22;;;;;;;5.44;60.77;100416.81;4994230;28;20045;-74
2022/04/18 06:15:26;;;;;;;3.90;2.58;;;;;;;5.72;62.67;100420.84;4986042;28;20046;-76
2022/04/18 06:17:52;;;;;;;10.45;2.92;;;;;;;5.48;62.50;100365.72;5000592;28;20316;-76
2022/04/18 06:20:19;;;;;;;5.18;2.70;;;;;;;6.02;62.03;100424.94;5003381;28;20081;-75
2022/04/18 06:22:45;;;;;;;4.05;2.58;;;;;;;5.64;61.75;100463.19;5003831;28;20117;-76
2022/04/18 06:25:10;;;;;;;7.47;3.58;;;;;;;5.62;61.94;100463.16;5004709;28;20162;-74
2022/04/18 06:27:36;;;;;;;5.05;3.10;;;;;;;5.64;61.05;100471.88;5007127;28;20598;-76
2022/04/18 06:30:03;;;;;;;7.43;3.25;;;;;;;5.22;62.06;100418.09;5002862;28;20046;-77
2022/04/18 06:32:29;;;;;;;14.15;2.90;;;;;;;5.43;62.55;100432.38;4976747;28;20061;-75
2022/04/18 06:34:54;;;;;;;5.88;3.58;;;;;;;5.39;61.14;100436.66;5009247;28;20133;-75
2022/04/18 06:37:21;;;;;;;8.20;3.45;;;;;;;5.45;63.82;100446.31;5024175;28;20045;-75
2022/04/18 06:39:46;;;;;;;6.00;2.97;;;;;;;5.68;63.44;100478.03;5023079;28;20731;-76
2022/04/18 06:42:15;;;;;;;5.40;3.00;;;;;;;5.31;63.68;100427.78;5024528;28;20094;-77
2022/04/18 06:44:40;;;;;;;4.70;3.05;;;;;;;5.48;64.87;100475.88;5004265;28;20049;-74
2022/04/18 06:47:09;;;;;;;18.08;4.70;;;;;;;5.43;64.38;100428.06;5023492;28;20050;-75
2022/04/18 06:49:34;;;;;;;5.32;3.53;;;;;;;5.68;62.95;100436.38;5002994;28;20124;-75
2022/04/18 06:52:00;;;;;;;10.20;3.90;;;;;;;6.27;62.83;100474.84;5022473;28;20430;-76
2022/04/18 06:54:25;;;;;;;12.85;4.88;;;;;;;5.64;63.65;100461.47;5005147;28;20104;-75
2022/04/18 06:57:01;;;;;;;5.65;3.63;;;;;;;6.09;63.27;100491.91;5021838;28;20041;-76
2022/04/18 06:59:29;;;;;;;7.25;3.85;;;;;;;5.87;63.00;100443.69;5023123;28;20052;-78
2022/04/18 07:01:55;;;;;;;9.75;4.00;;;;;;;6.01;62.65;100436.16;5021282;28;20149;-76
2022/04/18 07:04:21;;;;;;;6.07;3.97;;;;;;;5.83;63.64;100438.38;5003544;28;20124;-75
2022/04/18 07:06:46;;;;;;;7.18;3.92;;;;;;;6.26;62.94;100470.50;5020812;28;20294;-76
2022/04/18 07:09:13;;;;;;;9.80;4.53;;;;;;;6.02;63.04;100443.16;5021420;28;20049;-76
2022/04/18 07:11:44;;;;;;;7.60;4.30;;;;;;;6.32;62.38;100435.03;5022053;28;20040;-75
2022/04/18 07:14:13;;;;;;;7.40;4.53;;;;;;;6.84;62.23;100475.88;5019803;28;20053;-76
2022/04/18 07:16:43;;;;;;;7.82;4.07;;;;;;;6.53;63.47;100468.41;5023271;28;20076;-75
2022/04/18 07:19:10;;;;;;;6.90;3.90;;;;;;;6.58;61.23;100428.47;5020191;28;20124;-77
2022/04/18 07:21:36;;;;;;;9.98;4.70;;;;;;;6.75;63.71;100459.19;5024529;28;20469;-74
2022/04/18 07:24:06;;;;;;;9.70;5.05;;;;;;;6.49;60.26;100429.22;5022873;28;20049;-76
2022/04/18 07:26:34;;;;;;;6.32;4.07;;;;;;;7.31;61.02;100462.66;5021691;28;20053;-78
2022/04/18 07:28:59;;;;;;;7.72;4.80;;;;;;;7.38;60.80;100434.03;5024288;28;20512;-78
2022/04/18 07:31:25;;;;;;;9.05;6.32;;;;;;;7.48;60.99;100462.88;5022121;28;20041;-75
2022/04/18 07:33:50;;;;;;;7.15;5.63;;;;;;;6.69;60.76;100459.09;5023367;28;20029;-78
2022/04/18 07:36:16;;;;;;;8.65;4.53;;;;;;;6.78;61.77;100439.25;5006689;28;20388;-77
2022/04/18 07:38:51;;;;;;;8.70;5.30;;;;;;;7.39;59.49;100490.59;5023346;28;20049;-75
2022/04/18 07:41:23;;;;;;;9.82;5.60;;;;;;;7.05;61.09;100437.06;5024642;28;20041;-74
2022/04/18 07:43:50;;;;;;;7.15;4.30;;;;;;;6.70;57.00;100413.06;5004660;28;20527;-78
2022/04/18 07:46:17;;;;;;;6.30;4.40;;;;;;;6.54;57.19;100419.75;5007580;28;20095;-74
2022/04/18 07:48:50;;;;;;;6.32;3.55;;;;;;;7.39;55.44;100477.53;5008022;28;20049;-75
2022/04/18 07:51:36;;;;;;;10.90;3.80;;;;;;;6.92;57.28;100476.84;5024159;28;20025;-75
2022/04/18 07:54:14;;;;;;;5.80;3.75;;;;;;;7.09;54.68;100432.75;5024452;28;20049;-78
2022/04/18 07:56:43;;;;;;;6.13;3.95;;;;;;;7.17;54.62;100484.19;5006602;28;20060;-76
2022/04/18 07:59:11;;;;;;;10.40;4.18;;;;;;;7.16;53.92;100440.72;5023297;28;20147;-76
2022/04/18 08:01:37;;;;;;;8.43;4.03;;;;;;;7.61;54.83;100483.06;5004062;28;20523;-77
2022/04/18 08:04:03;;;;;;;10.95;4.30;;;;;;;6.86;55.15;100472.44;5022375;28;20025;-75
2022/04/18 08:06:29;;;;;;;14.85;4.20;;;;;;;7.35;56.57;100438.31;5022891;28;20025;-76
2022/04/18 08:08:55;;;;;;;9.35;4.32;;;;;;;7.62;54.85;100482.22;5002351;28;20073;-79
2022/04/18 08:11:21;;;;;;;7.07;3.88;;;;;;;7.89;52.70;100473.84;5006732;28;20092;-75
2022/04/18 08:13:49;;;;;;;5.70;3.38;;;;;;;7.83;53.65;100472.03;5023118;28;20500;-75
2022/04/18 08:16:16;;;;;;;5.70;3.35;;;;;;;7.65;52.49;100424.78;5023209;28;20041;-75
2022/04/18 08:18:44;;;;;;;7.28;3.85;;;;;;;7.53;52.44;100428.13;5024536;28;20032;-73
2022/04/18 08:21:15;;;;;;;6.10;3.47;;;;;;;7.54;52.81;100465.56;5004129;28;20050;-79
2022/04/18 08:23:42;;;;;;;5.35;2.83;;;;;;;7.29;50.77;100478.28;5022956;28;20071;-76
2022/04/18 08:26:07;;;;;;;7.57;2.13;;;;;;;7.78;50.19;100465.00;5019352;28;20050;-75
2022/04/18 08:28:51;;;;;;;3.53;1.67;;;;;;;6.82;49.32;100431.50;5004453;28;20060;-78
2022/04/18 08:31:28;;;;;;;3.83;2.55;;;;;;;7.74;50.40;100471.91;4992586;28;20104;-79
2022/04/18 08:33:54;;;;;;;4.47;2.75;;;;;;;8.07;50.55;100473.16;5000039;28;20048;-74
2022/04/18 08:36:26;;;;;;;5.18;2.70;;;;;;;7.86;50.50;100459.88;4988450;28;20120;-78
2022/04/18 08:38:52;;;;;;;5.40;3.00;;;;;;;7.31;50.37;100433.94;4984957;28;20120;-75
2022/04/18 08:41:29;;;;;;;4.80;2.78;;;;;;;7.15;52.20;100419.78;5009466;28;20057;-75
2022/04/18 08:43:55;;;;;;;5.85;2.97;;;;;;;7.52;52.37;100434.22;4948718;28;20062;-75
2022/04/18 08:46:21;;;;;;;9.07;3.60;;;;;;;7.62;52.23;100479.59;4996853;28;20057;-75
2022/04/18 08:54:18;;;;;;;4.93;3.22;;;;;;;7.70;52.68;100425.75;4997836;28;20056;-75
2022/04/18 08:56:44;;;;;;;4.03;2.20;;;;;;;8.10;48.05;100464.47;5011163;28;20061;-76
2022/04/18 08:59:10;;;;;;;5.72;2.50;;;;;;;8.21;48.63;100416.69;5007892;28;20081;-76
2022/04/18 09:01:45;;;;;;;2.58;1.80;;;;;;;7.24;49.82;100459.06;5007876;28;20179;-74
2022/04/18 09:04:12;;;;;;;3.35;1.50;;;;;;;7.46;48.92;100420.19;5006097;28;20073;-76
2022/04/18 09:06:39;;;;;;;7.43;2.60;;;;;;;7.67;48.99;100484.88;5012765;28;20025;-74
2022/04/18 09:09:06;;;;;;;2.97;1.92;;;;;;;7.03;48.31;100430.94;5010703;28;20050;-78
2022/04/18 09:11:37;;;;;;;5.43;1.63;;;;;;;7.68;49.07;100471.84;5010248;28;20049;-75
2022/04/18 09:14:07;;;;;;;2.58;1.30;;;;;;;7.08;49.51;100429.25;5013818;28;20517;-75
2022/04/18 09:16:35;;;;;;;2.08;1.50;;;;;;;7.63;50.38;100475.25;5008391;28;20222;-75
2022/04/18 09:19:16;;;;;;;5.22;2.10;;;;;;;7.93;48.76;100456.47;5005756;28;20050;-80
2022/04/18 09:22:02;;;;;;;5.60;2.08;;;;;;;8.04;47.76;100481.84;5007592;28;20048;-77
2022/04/18 09:24:33;;;;;;;2.75;1.70;;;;;;;7.39;48.94;100416.63;4990759;28;20053;-75
2022/04/18 09:27:27;;;;;;;2.78;1.85;;;;;;;8.25;47.00;100430.66;5008224;28;20049;-75
2022/04/18 09:30:12;;;;;;;5.20;2.65;;;;;;;8.17;48.34;100394.00;4993008;28;20137;-76
2022/04/18 09:32:40;;;;;;;4.13;2.38;;;;;;;8.33;49.35;100456.88;5025302;28;20072;-76
2022/04/18 09:35:08;;;;;;;3.60;1.33;;;;;;;7.88;47.73;100451.19;5013909;28;20176;-75
2022/04/18 09:37:33;;;;;;;2.70;1.45;;;;;;;8.31;48.08;100453.38;5018864;28;20552;-75
2022/04/18 09:40:00;;;;;;;3.38;1.95;;;;;;;8.59;48.43;100463.28;5025821;28;20092;-74
2022/04/18 09:42:28;;;;;;;4.72;1.52;;;;;;;8.56;48.83;100447.53;5008118;28;20399;-75
2022/04/18 09:44:58;;;;;;;2.30;1.52;;;;;;;8.32;47.26;100474.31;5006057;28;20097;-74
2022/04/18 09:47:27;;;;;;;2.80;1.45;;;;;;;7.91;49.11;100459.03;5026593;28;20353;-75
2022/04/18 09:49:52;;;;;;;3.22;1.48;;;;;;;7.46;49.14;100409.75;5024443;28;20057;-78
2022/04/18 09:52:20;;;;;;;3.80;1.33;;;;;;;7.99;48.40;100456.53;5024588;28;20410;-76
2022/04/18 09:55:01;;;;;;;4.28;2.25;;;;;;;8.12;49.31;100460.16;5007257;28;20042;-75
2022/04/18 09:57:28;;;;;;;2.80;1.60;;;;;;;7.87;50.81;100428.53;5026116;28;20580;-77
2022/04/18 10:00:00;;;;;;;3.25;1.75;;;;;;;8.60;47.48;100453.69;5008545;28;20052;-75
2022/04/18 10:02:26;;;;;;;3.28;1.73;;;;;;;9.19;46.69;100449.75;5024060;28;20132;-74
2022/04/18 10:04:52;;;;;;;2.65;1.27;;;;;;;8.39;48.28;100396.81;5008143;28;20060;-75
2022/04/18 10:07:19;;;;;;;3.70;1.83;;;;;;;9.09;46.00;100418.28;5022679;28;20111;-76
2022/04/18 10:09:45;;;;;;;6.63;1.90;;;;;;;9.13;47.61;100410.44;5005878;28;20030;-76
2022/04/18 10:12:12;;;;;;;3.47;1.63;;;;;;;9.28;47.81;100437.59;5005754;28;20112;-78
2022/04/18 10:14:39;;;;;;;4.05;1.50;;;;;;;8.53;46.56;100433.59;5008798;28;20134;-75
2022/04/18 10:17:07;;;;;;;6.78;1.67;;;;;;;8.32;46.66;100427.25;5026265;28;20101;-74
2022/04/18 10:19:44;;;;;;;3.83;1.67;;;;;;;9.15;47.43;100406.09;5022741;28;20049;-78
2022/04/18 10:22:46;;;;;;;3.90;1.88;;;;;;;9.29;46.28;100436.75;5009013;28;20045;-74
2022/04/18 10:25:39;;;;;;;3.30;1.33;;;;;;;8.39;47.59;100438.66;5025378;28;20048;-74
2022/04/18 10:28:14;;;;;;;3.03;1.73;;;;;;;8.91;46.81;100415.53;5004790;28;20057;-75
2022/04/18 10:30:47;;;;;;;3.65;1.40;;;;;;;8.91;45.82;100440.84;5024657;28;20053;-75
2022/04/18 10:33:14;;;;;;;4.05;1.45;;;;;;;8.62;45.52;100399.66;5020203;28;20045;-75
2022/04/18 10:35:51;;;;;;;3.60;1.90;;;;;;;8.88;45.95;100397.22;4988714;28;20061;-75
2022/04/18 10:38:20;;;;;;;2.78;1.60;;;;;;;9.53;47.04;100374.88;5005292;28;20415;-75
2022/04/18 10:40:48;;;;;;;2.00;1.33;;;;;;;9.75;45.85;100401.13;5004847;28;20133;-75
2022/04/18 10:43:14;;;;;;;3.50;1.95;;;;;;;10.39;46.02;100421.38;5005652;28;20042;-76
2022/04/18 10:45:40;;;;;;;6.80;2.10;;;;;;;10.30;44.55;100431.00;5024130;28;20053;-74
2022/04/18 10:48:11;;;;;;;4.53;2.17;;;;;;;9.73;41.94;100381.03;5006663;28;20054;-75
2022/04/18 10:50:39;;;;;;;4.95;1.20;;;;;;;9.94;46.44;100376.72;5024054;28;20041;-76
2022/04/18 10:53:24;;;;;;;3.33;1.48;;;;;;;9.73;44.23;100403.75;5022725;28;20083;-77
2022/04/18 10:55:56;;;;;;;4.60;2.10;;;;;;;9.10;45.47;100427.00;5006438;28;20100;-77
2022/04/18 10:58:34;;;;;;;2.25;1.23;;;;;;;10.05;43.73;100403.84;5022789;28;20061;-74
2022/04/18 11:01:04;;;;;;;3.50;1.60;;;;;;;10.83;45.07;100389.88;5023091;28;20091;-77
2022/04/18 11:03:38;;;;;;;8.65;2.00;;;;;;;10.86;42.56;100382.00;5024470;28;21246;-76
2022/04/18 11:06:16;;;;;;;6.00;2.22;;;;;;;9.34;42.36;100425.41;5023902;28;20120;-76
2022/04/18 11:08:57;;;;;;;4.65;1.92;;;;;;;10.01;42.10;100417.78;5024210;28;20096;-75
2022/04/18 11:11:23;;;;;;;4.63;1.20;;;;;;;10.82;45.11;100401.28;5021487;28;20069;-75
2022/04/18 11:13:50;;;;;;;10.00;2.03;;;;;;;10.52;43.55;100368.94;5023775;28;20072;-75
2022/04/18 11:16:25;;;;;;;3.50;1.75;;;;;;;10.89;45.94;100370.66;5003277;28;20370;-79
2022/04/18 11:19:15;;;;;;;3.72;1.27;;;;;;;10.26;42.11;100391.63;5021772;28;20029;-75
2022/04/18 11:24:41;;;;;;;6.55;2.15;;;;;;;10.19;40.83;100377.63;4995032;28;20049;-75
2022/04/18 11:27:27;;;;;;;4.35;1.02;;;;;;;11.01;43.19;100399.50;5022585;28;20046;-75
2022/04/18 11:29:55;;;;;;;3.53;1.73;;;;;;;9.62;40.84;100351.31;5005251;28;20137;-79
2022/04/18 11:32:24;;;;;;;4.75;1.60;;;;;;;10.83;41.54;100403.00;5021460;28;20060;-74
2022/04/18 11:34:53;;;;;;;2.88;1.63;;;;;;;10.64;41.60;100391.66;5021024;28;20087;-74
2022/04/18 11:37:25;;;;;;;5.25;1.88;;;;;;;9.52;41.53;100366.13;5021349;28;20057;-75
2022/04/18 11:39:56;;;;;;;2.65;1.48;;;;;;;9.79;41.48;100402.91;5023395;28;20103;-75
2022/04/18 11:42:24;;;;;;;3.30;1.70;;;;;;;10.03;42.09;100410.81;5023454;28;20029;-74
2022/04/18 11:44:53;;;;;;;2.83;1.60;;;;;;;10.45;42.14;100401.28;5003332;28;20045;-74
2022/04/18 11:47:29;;;;;;;4.85;1.55;;;;;;;10.29;42.54;100396.91;5023488;28;20053;-78
2022/04/18 11:49:58;;;;;;;3.65;1.70;;;;;;;9.87;42.62;100359.22;5020363;28;20132;-75
2022/04/18 11:52:35;;;;;;;4.78;2.28;;;;;;;10.13;42.45;100351.41;5022194;28;20128;-74